This is the latest recevied weather packets stored in our database for station/object KD5BIG-13. If no packets are shown the sender has not sent any weather packets the latest 1 day(s).
| Time | Temp. | Humidity | Pressure | Rain* | Wind** | Luminosity | Snow |
|---|---|---|---|---|---|---|---|
| 1778012349 | 25.56° C | 76% | 1014.1 hPa | 0 mm | 0 m/s | 236 W/m² | - |
| 1778012046 | 25.56° C | 75% | 1014.3 hPa | 0 mm | 1.34 m/s, 197° | 228 W/m² | - |
| 1778011744 | 25.56° C | 75% | 1014.3 hPa | 0 mm | 0 m/s | 166 W/m² | - |
| 1778011441 | 25° C | 75% | 1014.2 hPa | 0 mm | 0.45 m/s, 215° | 192 W/m² | - |
| 1778011136 | 25° C | 76% | 1014.4 hPa | 0 mm | 0 m/s | 169 W/m² | - |
| 1778010834 | 25° C | 76% | 1014.5 hPa | 0 mm | 1.34 m/s, 191° | 189 W/m² | - |
| 1778010531 | 25° C | 75% | 1014.5 hPa | 0 mm | 1.34 m/s, 227° | 144 W/m² | - |
| 1778010229 | 25° C | 76% | 1014.6 hPa | 0 mm | 0 m/s | 196 W/m² | - |
| 1778009928 | 25° C | 76% | 1014.7 hPa | 0 mm | 0.89 m/s, 198° | 134 W/m² | - |
| 1778009627 | 25° C | 75% | 1014.5 hPa | 0 mm | 0 m/s | 160 W/m² | - |
| 1778009324 | 25° C | 74% | 1014.6 hPa | 0 mm | 1.34 m/s, 180° | 152 W/m² | - |
| 1778009022 | 25° C | 73% | 1014.5 hPa | 0 mm | 2.24 m/s, 161° | 186 W/m² | - |
| 1778008719 | 25° C | 75% | 1014.5 hPa | 0 mm | 0 m/s | 193 W/m² | - |
| 1778008418 | 25° C | 73% | 1014.9 hPa | 0 mm | 0.89 m/s, 166° | 184 W/m² | - |
| 1778008114 | 25° C | 73% | 1014.8 hPa | 0 mm | 0.45 m/s, 199° | 195 W/m² | - |
| 1778007810 | 25° C | 74% | 1014.8 hPa | 0 mm | 1.34 m/s, 174° | 173 W/m² | - |
| 1778007506 | 25° C | 74% | 1014.8 hPa | 0 mm | 0 m/s | 230 W/m² | - |
| 1778007202 | 25° C | 74% | 1015.1 hPa | 0 mm | 0.45 m/s, 221° | 134 W/m² | - |
| 1778006898 | 25° C | 73% | 1014.9 hPa | 0 mm | 0.45 m/s, 263° | 113 W/m² | - |
| 1778006596 | 25.56° C | 74% | 1014.7 hPa | 0 mm | 1.34 m/s, 202° | 149 W/m² | - |
| 1778006293 | 25.56° C | 71% | 1014.9 hPa | 0 mm | 0.89 m/s, 289° | 209 W/m² | - |
| 1778005989 | 25.56° C | 72% | 1015 hPa | 0 mm | 0.89 m/s, 168° | 236 W/m² | - |
| 1778005686 | 25.56° C | 71% | 1015.2 hPa | 0 mm | 1.79 m/s, 177° | 313 W/m² | - |
| 1778005383 | 25.56° C | 70% | 1014.9 hPa | 0 mm | 2.24 m/s, 198° | 368 W/m² | - |
| 1778005080 | 25.56° C | 72% | 1015.2 hPa | 0 mm | 2.24 m/s, 211° | 333 W/m² | - |
* Rain latest hour (hover to see other rain measurements)
** Current wind speed in m/s (hover to see current wind gust speed)